createdAt,value
2018-06-24T00:01:12.061Z,13.90
2018-06-24T00:07:00.906Z,13.85
2018-06-24T00:09:37.632Z,13.79
2018-06-24T00:12:07.151Z,13.88
2018-06-24T00:14:36.202Z,13.75
2018-06-24T00:17:04.500Z,13.77
2018-06-24T00:19:33.387Z,13.50
2018-06-24T00:22:05.345Z,13.47
2018-06-24T00:24:33.817Z,13.58
2018-06-24T00:27:13.727Z,13.54
2018-06-24T00:29:42.398Z,13.43
2018-06-24T00:32:10.674Z,13.51
2018-06-24T00:34:39.805Z,13.44
2018-06-24T00:37:08.415Z,13.27
2018-06-24T00:39:36.791Z,13.21
2018-06-24T00:42:06.175Z,13.46
2018-06-24T00:44:34.718Z,13.40
2018-06-24T00:47:03.051Z,13.31
2018-06-24T00:49:31.817Z,13.29
2018-06-24T00:52:00.382Z,13.09
2018-06-24T00:54:28.531Z,13.00
2018-06-24T00:56:56.603Z,12.88
2018-06-24T00:59:36.179Z,12.76
2018-06-24T01:02:04.254Z,12.69
2018-06-24T01:04:32.434Z,12.66
2018-06-24T01:07:01.367Z,12.71
2018-06-24T01:09:29.532Z,12.71
2018-06-24T01:11:58.137Z,12.61
2018-06-24T01:14:26.314Z,12.47
2018-06-24T01:16:54.454Z,12.40
2018-06-24T01:19:22.547Z,12.38
2018-06-24T01:21:50.634Z,12.38
2018-06-24T01:24:18.699Z,12.56
2018-06-24T01:26:46.775Z,12.57
2018-06-24T01:29:14.887Z,12.41
2018-06-24T01:31:43.010Z,12.46
2018-06-24T01:34:11.102Z,12.42
2018-06-24T01:36:39.178Z,12.21
2018-06-24T01:39:07.268Z,12.34
2018-06-24T01:41:35.448Z,12.28
2018-06-24T01:44:03.511Z,12.16
2018-06-24T01:46:31.578Z,12.05
2018-06-24T01:48:59.688Z,12.01
2018-06-24T01:51:27.781Z,12.02
2018-06-24T01:53:55.858Z,11.93
2018-06-24T01:56:23.963Z,11.90
2018-06-24T01:58:52.070Z,11.87
2018-06-24T02:01:20.543Z,11.84
2018-06-24T02:03:48.620Z,11.83
2018-06-24T02:06:16.698Z,11.83
2018-06-24T02:08:44.784Z,11.85
2018-06-24T02:11:12.872Z,11.89
2018-06-24T02:13:40.971Z,11.89
2018-06-24T02:16:09.221Z,11.86
2018-06-24T02:18:37.295Z,11.81
2018-06-24T02:21:05.364Z,11.81
2018-06-24T02:23:33.435Z,11.80
2018-06-24T02:26:01.539Z,11.90
2018-06-24T02:28:29.611Z,11.89
2018-06-24T02:30:57.726Z,11.88
2018-06-24T02:33:25.816Z,11.84
2018-06-24T02:35:53.958Z,11.86
2018-06-24T02:38:22.058Z,11.93
2018-06-24T02:40:50.169Z,11.99
2018-06-24T02:43:18.254Z,11.95
2018-06-24T02:45:46.350Z,11.91
2018-06-24T02:48:14.433Z,11.89
2018-06-24T02:50:42.524Z,11.89
2018-06-24T02:53:10.583Z,11.90
2018-06-24T02:55:38.725Z,11.90
2018-06-24T02:58:06.818Z,11.92
2018-06-24T03:00:34.910Z,11.91
2018-06-24T03:03:03.007Z,11.97
2018-06-24T03:05:31.071Z,12.07
2018-06-24T03:07:59.152Z,12.09
2018-06-24T03:10:27.284Z,12.12
2018-06-24T03:12:55.355Z,12.15
2018-06-24T03:15:23.420Z,12.16
2018-06-24T03:17:51.499Z,12.22
2018-06-24T03:20:19.570Z,12.23
2018-06-24T03:22:47.705Z,12.21
2018-06-24T03:25:15.783Z,12.25
2018-06-24T03:27:43.855Z,12.23
2018-06-24T03:30:11.928Z,12.20
2018-06-24T03:32:40.061Z,12.18
2018-06-24T03:35:08.188Z,12.27
2018-06-24T03:37:36.306Z,12.33
2018-06-24T03:40:04.414Z,12.35
2018-06-24T03:42:32.503Z,12.43
2018-06-24T03:45:00.608Z,12.47
2018-06-24T03:47:28.694Z,12.46
2018-06-24T03:49:56.770Z,12.40
2018-06-24T03:52:24.844Z,12.37
2018-06-24T03:54:52.920Z,12.46
2018-06-24T03:57:21.029Z,12.61
2018-06-24T03:59:49.123Z,12.61
2018-06-24T04:02:17.204Z,12.55
2018-06-24T04:04:45.303Z,12.56
2018-06-24T04:07:13.362Z,12.60
2018-06-24T04:09:41.438Z,12.65
2018-06-24T04:12:09.518Z,12.74
2018-06-24T04:14:37.612Z,12.71
2018-06-24T04:17:05.692Z,12.68
2018-06-24T04:19:33.825Z,12.67
2018-06-24T04:22:01.899Z,12.70
2018-06-24T04:24:29.989Z,12.83
2018-06-24T04:26:58.088Z,12.91
2018-06-24T04:29:26.196Z,12.99
2018-06-24T04:31:54.416Z,13.02
2018-06-24T04:34:22.578Z,12.99
2018-06-24T04:36:50.674Z,13.04
2018-06-24T04:39:18.786Z,13.19
2018-06-24T04:41:46.854Z,13.37
2018-06-24T04:44:14.968Z,13.45
2018-06-24T04:46:43.054Z,13.44
2018-06-24T04:49:11.141Z,13.48
2018-06-24T04:51:39.234Z,13.64
2018-06-24T04:54:07.303Z,13.95
2018-06-24T04:56:35.400Z,14.14
2018-06-24T04:59:03.480Z,14.13
2018-06-24T05:01:31.555Z,14.10
2018-06-24T05:03:59.655Z,14.15
2018-06-24T05:06:27.736Z,14.15
2018-06-24T05:08:55.832Z,14.26
2018-06-24T05:11:23.904Z,14.35
2018-06-24T05:13:51.986Z,14.44
2018-06-24T05:16:20.067Z,14.69
2018-06-24T05:18:48.165Z,14.99
2018-06-24T05:21:16.424Z,15.02
2018-06-24T05:23:44.480Z,15.04
2018-06-24T05:26:12.572Z,14.98
2018-06-24T05:28:40.635Z,15.08
2018-06-24T05:31:08.727Z,15.28
2018-06-24T05:33:36.800Z,15.44
2018-06-24T05:36:04.899Z,15.46
2018-06-24T05:38:32.972Z,15.37
2018-06-24T05:41:01.071Z,15.54
2018-06-24T05:43:29.150Z,15.67
2018-06-24T05:45:57.219Z,15.73
2018-06-24T05:48:25.290Z,16.09
2018-06-24T05:50:53.367Z,16.34
2018-06-24T05:53:21.443Z,16.42
2018-06-24T05:55:49.767Z,16.45
2018-06-24T05:58:17.874Z,16.37
2018-06-24T06:00:46.063Z,15.95
2018-06-24T06:03:14.167Z,15.77
2018-06-24T06:05:42.337Z,15.81
2018-06-24T06:08:10.431Z,15.89
2018-06-24T06:10:38.516Z,16.02
2018-06-24T06:13:06.716Z,16.42
2018-06-24T06:15:34.858Z,16.78
2018-06-24T06:18:09.493Z,17.16
2018-06-24T06:20:37.564Z,17.45
2018-06-24T06:23:05.647Z,17.75
2018-06-24T06:25:33.719Z,18.04
2018-06-24T06:28:01.811Z,18.37
2018-06-24T06:30:29.872Z,18.57
2018-06-24T06:32:57.971Z,18.73
2018-06-24T06:35:26.057Z,18.50
2018-06-24T06:37:54.156Z,18.87
2018-06-24T06:40:22.265Z,18.29
2018-06-24T06:42:50.452Z,18.09
2018-06-24T06:45:18.644Z,18.63
2018-06-24T06:47:46.615Z,18.65
2018-06-24T06:50:14.739Z,18.26
2018-06-24T06:52:42.815Z,17.78
2018-06-24T06:55:10.888Z,17.97
2018-06-24T06:57:38.968Z,18.00
2018-06-24T07:00:07.081Z,18.02
2018-06-24T07:02:35.148Z,17.84
2018-06-24T07:05:03.206Z,18.08
2018-06-24T07:07:31.355Z,18.10
2018-06-24T07:09:59.427Z,18.54
2018-06-24T07:12:27.491Z,18.08
2018-06-24T07:14:55.584Z,18.07
2018-06-24T07:17:23.653Z,18.00
2018-06-24T07:19:51.760Z,17.93
2018-06-24T07:22:19.832Z,18.23
2018-06-24T07:24:47.959Z,18.46
2018-06-24T07:27:16.065Z,18.67
2018-06-24T07:29:44.173Z,18.75
2018-06-24T07:32:12.275Z,18.43
2018-06-24T07:34:40.451Z,18.21
2018-06-24T07:37:08.535Z,18.52
2018-06-24T07:39:36.832Z,18.72
2018-06-24T07:42:04.896Z,18.44
2018-06-24T07:44:33.061Z,18.37
2018-06-24T07:47:01.128Z,18.28
2018-06-24T07:49:29.288Z,18.43
2018-06-24T07:51:57.416Z,18.73
2018-06-24T07:54:32.222Z,18.91
2018-06-24T07:57:00.362Z,18.84
2018-06-24T07:59:28.469Z,18.82
2018-06-24T08:01:56.561Z,19.05
2018-06-24T08:04:24.665Z,18.91
2018-06-24T08:06:52.763Z,19.27
2018-06-24T08:09:20.864Z,19.19
2018-06-24T08:11:49.003Z,18.98
2018-06-24T08:14:17.092Z,18.87
2018-06-24T08:16:45.262Z,18.95
2018-06-24T08:19:13.368Z,19.12
2018-06-24T08:21:41.508Z,18.91
2018-06-24T08:24:09.608Z,19.27
2018-06-24T08:26:37.706Z,19.49
2018-06-24T08:29:05.778Z,19.33
2018-06-24T08:31:33.923Z,19.27
2018-06-24T08:34:01.971Z,19.40
2018-06-24T08:36:30.120Z,19.82
2018-06-24T08:38:58.243Z,19.98
2018-06-24T08:41:26.304Z,20.03
2018-06-24T08:43:54.386Z,19.71
2018-06-24T08:46:22.482Z,19.89
2018-06-24T08:48:50.575Z,20.16
2018-06-24T08:51:18.682Z,20.24
2018-06-24T08:53:46.755Z,20.66
2018-06-24T08:56:14.871Z,20.30
2018-06-24T08:58:42.938Z,19.91
2018-06-24T09:01:11.135Z,19.65
2018-06-24T09:03:39.258Z,20.11
2018-06-24T09:06:07.357Z,20.28
2018-06-24T09:08:35.459Z,20.85
2018-06-24T09:11:03.624Z,21.24
2018-06-24T09:13:31.676Z,21.49
2018-06-24T09:15:59.939Z,21.39
2018-06-24T09:18:27.908Z,21.06
2018-06-24T09:20:55.994Z,20.26
2018-06-24T09:23:24.071Z,20.27
2018-06-24T09:25:52.174Z,19.90
2018-06-24T09:28:20.260Z,19.25
2018-06-24T09:30:48.758Z,19.03
2018-06-24T09:33:16.774Z,19.20
2018-06-24T09:35:45.038Z,18.98
2018-06-24T09:38:13.147Z,19.01
2018-06-24T09:40:41.231Z,19.00
2018-06-24T09:43:09.323Z,19.09
2018-06-24T09:45:37.409Z,19.56
2018-06-24T09:48:05.857Z,19.51
2018-06-24T09:50:33.954Z,19.82
2018-06-24T09:53:02.358Z,20.01
2018-06-24T09:55:30.427Z,19.97
2018-06-24T09:58:05.165Z,20.19
2018-06-24T10:00:33.286Z,20.61
2018-06-24T10:03:01.369Z,20.47
2018-06-24T10:05:30.064Z,20.66
2018-06-24T10:07:58.284Z,20.97
2018-06-24T10:10:26.371Z,20.69
2018-06-24T10:12:54.650Z,20.74
2018-06-24T10:15:22.724Z,20.18
2018-06-24T10:17:50.826Z,20.60
2018-06-24T10:20:18.895Z,20.67
2018-06-24T10:22:47.017Z,20.82
2018-06-24T10:25:15.127Z,20.88
2018-06-24T10:27:43.251Z,21.00
2018-06-24T10:30:11.360Z,21.39
2018-06-24T10:32:39.438Z,21.17
2018-06-24T10:35:07.511Z,21.82
2018-06-24T10:37:35.619Z,20.90
2018-06-24T10:40:03.709Z,21.05
2018-06-24T10:42:31.783Z,21.37
2018-06-24T10:44:59.876Z,21.19
2018-06-24T10:47:27.964Z,21.15
2018-06-24T10:49:56.082Z,21.71
2018-06-24T10:52:24.169Z,21.80
2018-06-24T10:54:52.263Z,21.85
2018-06-24T10:57:20.350Z,22.42
2018-06-24T10:59:48.691Z,22.53
2018-06-24T11:02:16.890Z,22.64
2018-06-24T11:04:44.913Z,22.48
2018-06-24T11:07:12.985Z,22.62
2018-06-24T11:09:41.069Z,23.03
2018-06-24T11:12:09.125Z,22.48
2018-06-24T11:14:37.204Z,21.95
2018-06-24T11:17:05.283Z,21.63
2018-06-24T11:19:33.350Z,21.60
2018-06-24T11:22:01.436Z,21.80
2018-06-24T11:24:29.506Z,21.79
2018-06-24T11:26:57.588Z,21.71
2018-06-24T11:29:25.672Z,22.23
2018-06-24T11:31:53.782Z,21.88
2018-06-24T11:34:21.885Z,22.06
2018-06-24T11:36:50.003Z,22.45
2018-06-24T11:39:18.095Z,22.70
2018-06-24T11:41:46.147Z,22.70
2018-06-24T11:44:14.215Z,22.57
2018-06-24T11:46:42.337Z,23.07
2018-06-24T11:49:10.398Z,23.05
2018-06-24T11:51:38.524Z,23.62
2018-06-24T11:54:06.634Z,23.35
2018-06-24T11:56:34.752Z,23.09
2018-06-24T11:59:02.844Z,22.16
2018-06-24T12:01:30.940Z,22.07
2018-06-24T12:03:59.020Z,22.26
2018-06-24T12:09:01.359Z,22.53
2018-06-24T12:11:29.469Z,22.14
2018-06-24T12:13:57.535Z,22.39
2018-06-24T12:16:25.637Z,22.92
2018-06-24T12:18:54.282Z,22.57
2018-06-24T12:21:22.403Z,22.77
2018-06-24T12:23:50.602Z,22.48
2018-06-24T12:26:18.693Z,22.71
2018-06-24T12:28:46.793Z,22.76
2018-06-24T12:31:14.885Z,22.79
2018-06-24T12:33:42.972Z,22.95
2018-06-24T12:36:11.041Z,22.68
2018-06-24T12:38:39.146Z,22.92
2018-06-24T12:41:07.232Z,23.22
2018-06-24T12:43:35.414Z,23.26
2018-06-24T12:46:03.423Z,23.39
2018-06-24T12:48:31.526Z,23.40
2018-06-24T12:51:01.152Z,23.45
2018-06-24T12:53:29.650Z,23.47
2018-06-24T12:56:01.840Z,23.28
2018-06-24T12:58:30.392Z,23.69
2018-06-24T13:00:58.951Z,23.75
2018-06-24T13:03:27.648Z,23.66
2018-06-24T13:05:58.733Z,23.59
2018-06-24T13:08:27.904Z,23.64
2018-06-24T13:13:35.790Z,23.60
2018-06-24T13:16:04.335Z,23.92
2018-06-24T13:18:33.308Z,23.74
2018-06-24T13:21:02.844Z,23.08
2018-06-24T13:23:31.552Z,22.91
2018-06-24T13:26:01.181Z,23.43
2018-06-24T13:28:32.735Z,23.60
2018-06-24T13:31:01.026Z,23.75
2018-06-24T13:33:29.451Z,23.41
2018-06-24T13:35:57.866Z,23.21
2018-06-24T13:38:27.085Z,23.46
2018-06-24T13:40:55.511Z,23.27
2018-06-24T13:43:23.871Z,23.56
2018-06-24T13:45:52.171Z,24.09
2018-06-24T13:48:20.492Z,24.06
2018-06-24T13:50:49.413Z,23.89
2018-06-24T13:53:18.768Z,24.11
2018-06-24T13:55:47.080Z,24.10
2018-06-24T13:58:16.170Z,23.50
2018-06-24T14:00:44.483Z,23.71
2018-06-24T14:03:12.604Z,23.32
2018-06-24T14:05:40.747Z,23.27
2018-06-24T14:08:08.997Z,23.55
2018-06-24T14:10:37.071Z,23.74
2018-06-24T14:13:05.727Z,23.67
2018-06-24T14:15:33.831Z,23.43
2018-06-24T14:18:01.920Z,23.55
2018-06-24T14:20:29.998Z,23.49
2018-06-24T14:22:58.093Z,23.65
2018-06-24T14:25:26.203Z,23.87
2018-06-24T14:27:54.292Z,23.89
2018-06-24T14:30:22.419Z,23.92
2018-06-24T14:32:50.518Z,23.91
2018-06-24T14:35:18.595Z,23.51
2018-06-24T14:37:46.716Z,23.31
2018-06-24T14:40:14.807Z,23.09
2018-06-24T14:42:42.903Z,22.70
2018-06-24T14:45:10.968Z,22.94
2018-06-24T14:47:39.139Z,23.01
2018-06-24T14:50:07.244Z,23.27
2018-06-24T14:52:35.424Z,23.30
2018-06-24T14:55:03.628Z,23.49
2018-06-24T14:57:31.837Z,23.03
2018-06-24T14:59:59.911Z,23.37
2018-06-24T15:02:28.574Z,23.12
2018-06-24T15:04:56.763Z,22.71
2018-06-24T15:07:24.822Z,23.07
2018-06-24T15:09:52.907Z,23.14
2018-06-24T15:12:21.019Z,22.76
2018-06-24T15:14:49.136Z,22.62
2018-06-24T15:17:17.215Z,22.78
2018-06-24T15:19:45.338Z,22.62
2018-06-24T15:22:13.426Z,22.35
2018-06-24T15:24:41.484Z,22.63
2018-06-24T15:27:09.667Z,23.02
2018-06-24T15:29:37.754Z,23.22
2018-06-24T15:32:05.851Z,23.32
2018-06-24T15:34:33.929Z,22.81
2018-06-24T15:37:02.019Z,22.52
2018-06-24T15:39:30.095Z,22.84
2018-06-24T15:41:58.188Z,22.87
2018-06-24T15:44:26.263Z,22.45
2018-06-24T15:46:54.360Z,22.59
2018-06-24T15:49:22.414Z,22.51
2018-06-24T15:51:50.499Z,22.61
2018-06-24T15:54:18.576Z,22.49
2018-06-24T15:56:46.719Z,22.69
2018-06-24T15:59:14.780Z,22.69
2018-06-24T16:01:42.863Z,22.30
2018-06-24T16:04:10.990Z,21.95
2018-06-24T16:06:39.104Z,22.15
2018-06-24T16:09:09.487Z,22.20
2018-06-24T16:11:37.619Z,21.77
2018-06-24T16:14:07.275Z,21.98
2018-06-24T16:16:35.758Z,22.10
2018-06-24T16:19:03.908Z,21.98
2018-06-24T16:21:32.028Z,21.97
2018-06-24T16:24:00.122Z,21.86
2018-06-24T16:26:28.293Z,21.87
2018-06-24T16:28:56.392Z,21.73
2018-06-24T16:31:24.484Z,21.55
2018-06-24T16:33:52.571Z,21.48
2018-06-24T16:36:20.656Z,21.50
2018-06-24T16:38:48.747Z,21.47
2018-06-24T16:41:16.871Z,21.51
2018-06-24T16:43:44.996Z,21.39
2018-06-24T16:48:47.451Z,21.23
2018-06-24T16:51:15.571Z,21.33
2018-06-24T16:53:43.672Z,21.33
2018-06-24T16:56:11.802Z,21.42
2018-06-24T16:58:40.368Z,21.45
2018-06-24T17:01:08.079Z,21.34
2018-06-24T17:03:36.147Z,21.31
2018-06-24T17:06:04.263Z,21.23
2018-06-24T17:08:32.371Z,21.36
2018-06-24T17:11:00.431Z,21.42
2018-06-24T17:13:28.543Z,21.44
2018-06-24T17:15:56.644Z,21.28
2018-06-24T17:18:24.739Z,21.29
2018-06-24T17:20:53.050Z,21.29
2018-06-24T17:23:21.229Z,21.30
2018-06-24T17:25:49.656Z,21.18
2018-06-24T17:28:17.897Z,21.11
2018-06-24T17:30:46.044Z,21.07
2018-06-24T17:33:15.322Z,20.95
2018-06-24T17:35:43.738Z,21.07
2018-06-24T17:38:12.293Z,21.00
2018-06-24T17:40:40.447Z,21.13
2018-06-24T17:43:08.870Z,21.23
2018-06-24T17:45:37.095Z,21.13
2018-06-24T17:48:07.087Z,21.17
2018-06-24T17:50:38.349Z,21.04
2018-06-24T17:53:07.470Z,20.79
2018-06-24T17:55:38.869Z,20.83
2018-06-24T17:58:09.993Z,20.69
2018-06-24T18:00:40.673Z,20.95
2018-06-24T18:03:11.023Z,20.86
2018-06-24T18:05:43.757Z,20.78
2018-06-24T18:08:12.744Z,20.92
2018-06-24T18:10:42.400Z,20.80
2018-06-24T18:13:11.366Z,20.74
2018-06-24T18:15:41.032Z,20.67
2018-06-24T18:18:11.847Z,20.74
2018-06-24T18:20:52.073Z,20.65
2018-06-24T18:23:22.204Z,20.63
2018-06-24T18:25:50.586Z,20.49
2018-06-24T18:28:20.662Z,20.51
2018-06-24T18:30:48.943Z,20.52
2018-06-24T18:33:19.316Z,20.54
2018-06-24T18:35:47.590Z,20.36
2018-06-24T18:38:15.978Z,20.40
2018-06-24T18:40:44.280Z,20.34
2018-06-24T18:43:14.840Z,20.29
2018-06-24T18:45:45.172Z,20.13
2018-06-24T18:48:13.889Z,20.04
2018-06-24T18:50:42.135Z,20.02
2018-06-24T18:53:11.994Z,20.02
2018-06-24T18:55:42.073Z,19.94
2018-06-24T18:58:10.276Z,19.86
2018-06-24T19:00:38.639Z,19.71
2018-06-24T19:03:07.736Z,19.67
2018-06-24T19:06:00.650Z,19.62
2018-06-24T19:08:34.146Z,19.61
2018-06-24T19:11:02.387Z,19.68
2018-06-24T19:13:34.543Z,19.50
2018-06-24T19:16:03.747Z,19.44
2018-06-24T19:18:31.994Z,19.44
2018-06-24T19:21:04.703Z,19.44
2018-06-24T19:23:35.464Z,19.46
2018-06-24T19:26:04.840Z,19.42
2018-06-24T19:28:33.350Z,19.44
2018-06-24T19:31:01.605Z,19.31
2018-06-24T19:33:31.047Z,19.39
2018-06-24T19:36:01.020Z,19.45
2018-06-24T19:38:30.665Z,19.40
2018-06-24T19:40:59.115Z,19.35
2018-06-24T19:43:28.022Z,19.37
2018-06-24T19:45:56.263Z,19.38
2018-06-24T19:48:24.517Z,19.28
2018-06-24T19:50:52.860Z,19.21
2018-06-24T19:57:12.616Z,19.18
2018-06-24T19:59:41.249Z,19.12
2018-06-24T20:02:10.895Z,19.00
2018-06-24T20:04:40.182Z,19.07
2018-06-24T20:07:09.268Z,19.02
2018-06-24T20:09:37.824Z,18.93
2018-06-24T20:12:07.667Z,18.91
2018-06-24T20:14:36.121Z,19.00
2018-06-24T20:17:06.396Z,18.93
2018-06-24T20:19:34.624Z,18.93
2018-06-24T20:22:05.714Z,18.89
2018-06-24T20:24:34.107Z,18.89
2018-06-24T20:27:04.197Z,18.78
2018-06-24T20:29:33.779Z,18.66
2018-06-24T20:32:05.856Z,18.61
2018-06-24T20:34:36.554Z,18.66
2018-06-24T20:37:05.789Z,18.60
2018-06-24T20:39:34.321Z,18.57
2018-06-24T20:42:03.026Z,18.59
2018-06-24T20:44:31.862Z,18.55
2018-06-24T20:47:01.832Z,18.55
2018-06-24T20:49:30.089Z,18.46
2018-06-24T20:51:59.073Z,18.44
2018-06-24T20:54:27.331Z,18.45
2018-06-24T20:56:55.534Z,18.49
2018-06-24T20:59:23.756Z,18.46
2018-06-24T21:01:52.099Z,18.40
2018-06-24T21:04:20.403Z,18.40
2018-06-24T21:06:48.643Z,18.42
2018-06-24T21:09:16.866Z,18.43
2018-06-24T21:11:50.384Z,18.42
2018-06-24T21:14:18.823Z,18.41
2018-06-24T21:16:47.244Z,18.41
2018-06-24T21:19:19.075Z,18.37
2018-06-24T21:21:47.464Z,18.37
2018-06-24T21:24:15.752Z,18.38
2018-06-24T21:26:44.249Z,18.47
2018-06-24T21:29:12.461Z,18.37
2018-06-24T21:31:40.740Z,18.39
2018-06-24T21:34:08.956Z,18.34
2018-06-24T21:36:38.463Z,18.34
2018-06-24T21:39:09.317Z,18.33
2018-06-24T21:41:37.735Z,18.42
2018-06-24T21:44:06.039Z,18.25
2018-06-24T21:46:36.311Z,18.24
2018-06-24T21:49:05.169Z,18.04
2018-06-24T21:51:33.491Z,18.02
2018-06-24T21:54:02.060Z,18.09
2018-06-24T21:56:30.450Z,18.19
2018-06-24T21:58:58.983Z,18.29
2018-06-24T22:01:27.517Z,18.26
2018-06-24T22:03:55.874Z,18.25
2018-06-24T22:06:24.920Z,18.21
2018-06-24T22:08:53.371Z,18.23
2018-06-24T22:11:22.348Z,18.29
2018-06-24T22:13:56.238Z,18.29
2018-06-24T22:16:24.622Z,18.24
2018-06-24T22:18:53.307Z,18.23
2018-06-24T22:21:21.511Z,18.28
2018-06-24T22:23:49.617Z,18.34
2018-06-24T22:26:17.727Z,18.23
2018-06-24T22:28:45.909Z,18.20
2018-06-24T22:31:14.095Z,18.16
2018-06-24T22:33:42.175Z,18.20
2018-06-24T22:36:10.243Z,18.26
2018-06-24T22:38:38.349Z,18.26
2018-06-24T22:41:06.437Z,18.12
2018-06-24T22:43:34.518Z,18.01
2018-06-24T22:46:02.597Z,17.95
2018-06-24T22:48:30.816Z,18.00
2018-06-24T22:50:58.899Z,18.20
2018-06-24T22:53:27.192Z,18.14
2018-06-24T22:55:55.310Z,18.04
2018-06-24T22:58:23.383Z,18.07
2018-06-24T23:00:51.624Z,18.09
2018-06-24T23:03:21.408Z,18.08
2018-06-24T23:05:49.479Z,18.04
2018-06-24T23:08:23.203Z,18.05
2018-06-24T23:10:51.898Z,18.04
2018-06-24T23:13:19.964Z,17.82
2018-06-24T23:15:48.055Z,17.89
2018-06-24T23:18:16.155Z,17.94
2018-06-24T23:20:44.216Z,17.85
2018-06-24T23:23:12.338Z,17.77
2018-06-24T23:25:40.448Z,17.74
2018-06-24T23:28:08.727Z,17.77
2018-06-24T23:30:36.844Z,17.72
2018-06-24T23:33:04.956Z,17.74
2018-06-24T23:35:33.059Z,17.78
2018-06-24T23:38:01.182Z,17.78
2018-06-24T23:40:29.340Z,17.79
2018-06-24T23:42:57.456Z,17.76
2018-06-24T23:45:25.527Z,17.72
2018-06-24T23:47:53.692Z,17.79
2018-06-24T23:50:21.773Z,17.81
2018-06-24T23:52:49.837Z,17.74
2018-06-24T23:55:17.909Z,17.84
2018-06-24T23:57:45.991Z,17.74
